Time;durP1;ratioP1;P1;durP2;ratioP2;P2;SDS_P1;SDS_P2;PMS_P1;PMS_P2;Temp;Humidity;BMP_temperature;BMP_pressure;BME280_temperature;BME280_humidity;BME280_pressure;Samples;Min_cycle;Max_cycle;Signal;HPM_P1;HPM_P2
2023/08/07 00:00:29;;;;;;;8.40;2.38;;;;;;;15.46;68.81;101303.22;5126209;28;20050;-61
2023/08/07 00:02:57;;;;;;;13.75;3.00;;;;;;;15.46;68.77;101305.09;5126382;28;20043;-61
2023/08/07 00:05:25;;;;;;;10.50;2.63;;;;;;;15.43;68.57;101298.28;5125961;28;20058;-60
2023/08/07 00:07:53;;;;;;;5.63;2.65;;;;;;;15.43;68.71;101289.34;5126062;28;20096;-61
2023/08/07 00:10:22;;;;;;;7.55;2.53;;;;;;;15.42;68.63;101295.81;5125922;28;20055;-60
2023/08/07 00:12:50;;;;;;;8.60;2.33;;;;;;;15.41;68.42;101294.19;5126179;28;20073;-61
2023/08/07 00:15:18;;;;;;;10.45;2.63;;;;;;;15.42;68.22;101287.69;5126028;28;20055;-60
2023/08/07 00:17:46;;;;;;;10.68;3.15;;;;;;;15.41;68.17;101299.59;5125990;28;20052;-60
2023/08/07 00:20:13;;;;;;;9.80;2.42;;;;;;;15.33;68.26;101284.56;5125662;28;20552;-61
2023/08/07 00:22:41;;;;;;;9.85;2.33;;;;;;;15.39;68.01;101289.00;5126473;27;20108;-60
2023/08/07 00:25:09;;;;;;;8.90;2.40;;;;;;;15.41;68.01;101295.00;5145081;27;20550;-61
2023/08/07 00:27:38;;;;;;;12.05;2.70;;;;;;;15.42;67.96;101304.78;5156602;27;20055;-61
2023/08/07 00:30:07;;;;;;;10.57;3.33;;;;;;;15.43;67.84;101305.59;5146528;28;20055;-61
2023/08/07 00:32:35;;;;;;;10.48;2.45;;;;;;;15.40;67.54;101298.78;5126697;28;20036;-60
2023/08/07 00:35:04;;;;;;;11.02;2.20;;;;;;;15.39;67.82;101294.41;5153970;27;20042;-60
2023/08/07 00:37:32;;;;;;;8.70;2.55;;;;;;;15.39;67.68;101305.25;5155973;27;20489;-60
2023/08/07 00:39:59;;;;;;;5.72;2.03;;;;;;;15.39;67.62;101312.56;5126199;28;20047;-60
2023/08/07 00:42:27;;;;;;;7.85;3.05;;;;;;;15.37;67.62;101322.81;5135821;27;20047;-61
2023/08/07 00:44:56;;;;;;;12.95;2.95;;;;;;;15.33;67.36;101322.47;5135839;27;20100;-61
2023/08/07 00:47:25;;;;;;;12.13;2.50;;;;;;;15.29;67.48;101330.25;5130006;28;20044;-61
2023/08/07 00:49:53;;;;;;;11.00;2.85;;;;;;;15.26;67.73;101325.31;5146725;27;20042;-61
2023/08/07 00:52:21;;;;;;;9.95;2.92;;;;;;;15.25;67.77;101317.44;5169337;27;20111;-61
2023/08/07 00:54:49;;;;;;;14.32;3.78;;;;;;;15.23;67.79;101320.38;5128722;28;20043;-60
2023/08/07 00:57:17;;;;;;;12.20;2.50;;;;;;;15.22;67.89;101326.88;5129459;28;20073;-61
2023/08/07 00:59:47;;;;;;;8.05;2.70;;;;;;;15.22;68.23;101324.16;5129418;28;20439;-61
2023/08/07 01:02:16;;;;;;;10.35;3.20;;;;;;;15.23;68.19;101320.38;5129254;28;20073;-61
2023/08/07 01:04:44;;;;;;;6.60;2.33;;;;;;;15.25;68.24;101315.56;5129058;27;20477;-61
2023/08/07 01:07:12;;;;;;;5.30;2.17;;;;;;;15.26;68.09;101322.63;5129450;28;20069;-61
2023/08/07 01:09:40;;;;;;;9.82;2.78;;;;;;;15.28;67.99;101319.66;5129106;27;20461;-61
2023/08/07 01:12:16;;;;;;;9.27;2.50;;;;;;;15.29;68.00;101324.84;5128833;28;20089;-61
2023/08/07 01:15:03;;;;;;;13.93;3.30;;;;;;;15.29;67.93;101322.13;5129084;27;20051;-61
2023/08/07 01:17:34;;;;;;;8.73;1.98;;;;;;;15.30;67.95;101323.78;5129169;28;20051;-61
2023/08/07 01:20:03;;;;;;;7.65;2.28;;;;;;;15.33;68.01;101329.78;5129068;28;20058;-61
2023/08/07 01:22:32;;;;;;;5.75;2.13;;;;;;;15.34;67.85;101332.25;5128867;28;20085;-61
2023/08/07 01:25:00;;;;;;;9.10;2.17;;;;;;;15.34;67.47;101328.72;5168037;27;20072;-61
2023/08/07 01:27:38;;;;;;;12.38;2.75;;;;;;;15.34;67.75;101321.41;5156812;27;20078;-61
2023/08/07 01:30:16;;;;;;;8.48;2.53;;;;;;;15.34;67.57;101320.59;5149457;27;20121;-62
2023/08/07 01:32:55;;;;;;;8.52;1.92;;;;;;;15.32;67.42;101320.81;5130849;27;20112;-61
2023/08/07 01:35:26;;;;;;;5.00;1.67;;;;;;;15.33;67.35;101330.59;5134028;27;20058;-60
2023/08/07 01:37:57;;;;;;;11.85;2.55;;;;;;;15.34;67.37;101323.28;5140746;27;20051;-60
2023/08/07 01:40:25;;;;;;;7.50;1.90;;;;;;;15.32;67.12;101325.41;5128409;28;20048;-60
2023/08/07 01:42:53;;;;;;;9.10;2.40;;;;;;;15.32;67.16;101334.38;5145316;27;20047;-60
2023/08/07 01:45:24;;;;;;;9.63;2.30;;;;;;;15.30;67.09;101334.59;5128427;28;20077;-60
2023/08/07 01:47:53;;;;;;;8.20;2.45;;;;;;;15.30;67.15;101344.63;5128617;28;20055;-60
2023/08/07 01:50:21;;;;;;;7.68;2.63;;;;;;;15.28;66.97;101346.75;5153209;27;20053;-60
2023/08/07 01:52:49;;;;;;;8.90;2.53;;;;;;;15.26;66.97;101352.41;5144035;27;20063;-59
2023/08/07 01:55:19;;;;;;;7.57;2.10;;;;;;;15.25;67.02;101349.94;5127953;28;20051;-61
2023/08/07 01:57:47;;;;;;;10.95;3.15;;;;;;;15.22;67.13;101356.66;5128454;28;20522;-60
2023/08/07 02:00:15;;;;;;;8.45;2.58;;;;;;;15.18;67.31;101358.19;5127948;28;20056;-60
2023/08/07 02:02:44;;;;;;;8.30;2.30;;;;;;;15.14;67.61;101357.03;5128401;28;20100;-61
2023/08/07 02:05:12;;;;;;;12.20;3.03;;;;;;;15.14;67.59;101358.91;5128030;28;20051;-60
2023/08/07 02:07:40;;;;;;;10.32;2.30;;;;;;;15.12;67.95;101359.16;5128077;27;20048;-61
2023/08/07 02:10:08;;;;;;;13.25;2.50;;;;;;;15.09;67.94;101365.03;5127730;28;20047;-60
2023/08/07 02:12:39;;;;;;;7.57;2.30;;;;;;;15.08;68.04;101360.69;5128001;28;20044;-61
2023/08/07 02:15:08;;;;;;;8.13;2.33;;;;;;;15.08;68.21;101363.41;5127766;27;20043;-61
2023/08/07 02:17:38;;;;;;;5.30;2.15;;;;;;;15.09;68.08;101364.22;5128145;28;20058;-60
2023/08/07 02:20:07;;;;;;;6.32;2.60;;;;;;;15.07;68.04;101350.94;5127549;27;20047;-60
2023/08/07 02:22:34;;;;;;;7.70;2.45;;;;;;;15.07;68.25;101356.34;5127855;28;20043;-60
2023/08/07 02:25:02;;;;;;;5.43;2.10;;;;;;;15.09;67.98;101364.22;5142419;27;20039;-60
2023/08/07 02:27:30;;;;;;;8.35;2.38;;;;;;;15.10;67.91;101365.88;5147379;27;20048;-60
2023/08/07 02:29:59;;;;;;;10.60;3.20;;;;;;;15.10;68.25;101355.84;5127691;28;20058;-60
2023/08/07 02:32:27;;;;;;;7.93;2.25;;;;;;;15.11;67.87;101362.09;5127432;27;20039;-60
2023/08/07 02:34:55;;;;;;;5.60;2.42;;;;;;;15.13;68.00;101360.78;5138804;27;20078;-60
2023/08/07 02:37:22;;;;;;;8.63;2.60;;;;;;;15.13;68.17;101362.69;5138456;27;20054;-60
2023/08/07 02:39:50;;;;;;;7.93;2.75;;;;;;;15.15;68.14;101360.56;5127201;27;20052;-60
2023/08/07 02:42:18;;;;;;;7.97;2.28;;;;;;;15.17;68.19;101366.56;5136824;27;20234;-60
2023/08/07 02:44:46;;;;;;;7.13;2.13;;;;;;;15.18;67.90;101358.19;5168599;27;20047;-60
2023/08/07 02:47:15;;;;;;;7.57;2.25;;;;;;;15.18;68.00;101351.97;5132257;27;20047;-60
2023/08/07 02:49:43;;;;;;;7.40;2.42;;;;;;;15.19;68.06;101353.59;5141302;27;20043;-60
2023/08/07 02:52:10;;;;;;;6.65;1.90;;;;;;;15.19;68.00;101351.72;5168364;27;20050;-61
2023/08/07 02:54:38;;;;;;;7.38;2.17;;;;;;;15.19;68.04;101356.31;5147707;27;20492;-61
2023/08/07 02:57:06;;;;;;;7.03;2.80;;;;;;;15.19;68.35;101348.19;5126763;28;20073;-61
2023/08/07 02:59:34;;;;;;;6.28;2.35;;;;;;;15.20;68.23;101347.13;5127251;28;20104;-61
2023/08/07 03:02:02;;;;;;;7.30;1.92;;;;;;;15.20;68.15;101344.41;5126936;27;20051;-61
2023/08/07 03:04:31;;;;;;;5.90;2.30;;;;;;;15.20;68.05;101353.34;5126583;28;20489;-61
2023/08/07 03:06:59;;;;;;;7.13;2.17;;;;;;;15.20;68.08;101352.53;5126907;28;20497;-61
2023/08/07 03:09:26;;;;;;;7.05;2.00;;;;;;;15.21;68.20;101349.59;5126642;28;20051;-61
2023/08/07 03:11:54;;;;;;;6.80;2.45;;;;;;;15.20;68.11;101339.81;5126609;28;20048;-61
2023/08/07 03:14:22;;;;;;;7.75;2.70;;;;;;;15.21;67.97;101352.31;5126446;28;20097;-61
2023/08/07 03:16:50;;;;;;;8.48;2.35;;;;;;;15.20;68.07;101350.66;5126834;28;20108;-61
2023/08/07 03:19:21;;;;;;;6.18;2.13;;;;;;;15.19;68.09;101349.00;5129680;27;20047;-61
2023/08/07 03:21:50;;;;;;;9.52;3.13;;;;;;;15.19;68.17;101349.00;5147476;27;20047;-61
2023/08/07 03:24:18;;;;;;;6.72;2.72;;;;;;;15.20;68.08;101352.53;5146288;27;20047;-60
2023/08/07 03:26:47;;;;;;;8.88;2.25;;;;;;;15.18;67.93;101343.84;5157887;27;20051;-61
2023/08/07 03:29:15;;;;;;;11.95;2.72;;;;;;;15.17;68.04;101344.91;5129758;27;20077;-61
2023/08/07 03:31:42;;;;;;;11.68;2.58;;;;;;;15.15;67.89;101344.31;5126602;28;20454;-61
2023/08/07 03:34:10;;;;;;;6.65;2.72;;;;;;;15.17;68.05;101348.44;5135740;27;20047;-61
2023/08/07 03:36:38;;;;;;;11.20;2.72;;;;;;;15.16;68.11;101357.59;5129593;27;20076;-61
2023/08/07 03:39:07;;;;;;;7.43;2.63;;;;;;;15.16;68.11;101341.38;5147051;27;20051;-61
2023/08/07 03:41:35;;;;;;;9.43;2.50;;;;;;;15.17;67.92;101342.19;5142182;27;20044;-61
2023/08/07 03:44:03;;;;;;;6.30;2.90;;;;;;;15.16;67.85;101338.66;5165808;27;20042;-61
2023/08/07 03:46:31;;;;;;;7.03;2.45;;;;;;;15.15;67.67;101341.59;5167583;27;20459;-61
2023/08/07 03:48:59;;;;;;;11.60;2.95;;;;;;;15.13;67.57;101339.13;5128799;27;20055;-61
2023/08/07 03:51:26;;;;;;;8.35;3.25;;;;;;;15.15;67.50;101338.91;5149117;27;20055;-61
2023/08/07 03:53:54;;;;;;;13.05;3.35;;;;;;;15.14;67.59;101343.50;5126071;28;20103;-61
2023/08/07 03:56:23;;;;;;;12.27;3.15;;;;;;;15.13;67.61;101341.03;5125860;28;20047;-61
2023/08/07 03:58:51;;;;;;;10.10;2.58;;;;;;;15.13;67.45;101341.03;5126328;28;20108;-61
2023/08/07 04:01:19;;;;;;;7.50;2.70;;;;;;;15.13;67.56;101339.13;5126143;28;20048;-61
2023/08/07 04:03:48;;;;;;;5.78;2.08;;;;;;;15.13;67.46;101341.84;5126502;28;20520;-61
2023/08/07 04:06:16;;;;;;;8.68;2.45;;;;;;;15.13;67.62;101338.31;5125992;28;20116;-61
2023/08/07 04:08:46;;;;;;;8.82;2.97;;;;;;;15.13;67.55;101344.56;5126249;28;20158;-61
2023/08/07 04:11:14;;;;;;;8.38;2.92;;;;;;;15.13;67.42;101341.03;5126031;28;20048;-61
2023/08/07 04:13:43;;;;;;;9.70;3.63;;;;;;;15.14;67.68;101345.38;5126006;28;20047;-61
2023/08/07 04:16:11;;;;;;;8.68;3.10;;;;;;;15.12;67.44;101342.91;5136935;27;20047;-61
2023/08/07 04:18:38;;;;;;;9.85;3.10;;;;;;;15.12;67.47;101353.72;5150991;27;20078;-61
2023/08/07 04:21:06;;;;;;;10.43;4.10;;;;;;;15.13;67.51;101349.16;5152688;27;20103;-61
2023/08/07 04:23:34;;;;;;;11.65;2.53;;;;;;;15.11;67.25;101351.28;5145811;27;20054;-61
2023/08/07 04:26:02;;;;;;;10.15;2.53;;;;;;;15.09;67.32;101365.03;5164534;27;20105;-61
2023/08/07 04:28:30;;;;;;;10.15;3.00;;;;;;;15.07;67.54;101361.75;5134645;27;20043;-61
2023/08/07 04:30:59;;;;;;;10.90;4.25;;;;;;;15.07;67.88;101360.94;5129745;28;20101;-61
2023/08/07 04:33:27;;;;;;;6.72;2.65;;;;;;;15.07;67.50;101360.94;5137447;27;20044;-61
2023/08/07 04:35:55;;;;;;;11.77;2.88;;;;;;;15.07;67.52;101371.75;5146202;27;20107;-61
2023/08/07 04:38:23;;;;;;;7.53;2.67;;;;;;;15.06;67.67;101376.34;5148052;27;20043;-61
2023/08/07 04:40:51;;;;;;;9.43;3.00;;;;;;;15.02;67.65;101374.34;5149809;27;20047;-61
2023/08/07 04:43:20;;;;;;;8.27;2.97;;;;;;;15.02;67.52;101375.19;5147733;27;20050;-61
2023/08/07 04:45:48;;;;;;;12.48;3.33;;;;;;;15.03;67.81;101376.00;5129649;28;20047;-61
2023/08/07 04:48:20;;;;;;;14.68;3.83;;;;;;;15.03;67.44;101376.81;5129906;28;20080;-61
2023/08/07 04:50:48;;;;;;;7.65;2.58;;;;;;;15.02;67.74;101379.78;5162390;27;20115;-61
2023/08/07 04:53:16;;;;;;;7.55;3.05;;;;;;;14.98;67.45;101371.31;5132977;27;20073;-61
2023/08/07 04:55:44;;;;;;;11.88;2.60;;;;;;;15.00;67.58;101380.00;5129011;28;20055;-61
2023/08/07 04:58:12;;;;;;;10.57;2.58;;;;;;;15.00;67.64;101366.47;5129332;27;20047;-61
2023/08/07 05:00:39;;;;;;;11.75;3.38;;;;;;;15.01;67.56;101372.72;5129249;28;20427;-61
2023/08/07 05:03:07;;;;;;;15.50;3.10;;;;;;;15.01;67.53;101378.94;5129670;28;20047;-61
2023/08/07 05:05:37;;;;;;;10.65;3.20;;;;;;;15.02;67.55;101377.06;5128944;27;20507;-61
2023/08/07 05:08:05;;;;;;;9.25;2.97;;;;;;;15.03;67.66;101386.84;5129261;27;20047;-61
2023/08/07 05:10:33;;;;;;;9.63;3.17;;;;;;;15.02;67.28;101390.59;5128762;28;20474;-61
2023/08/07 05:13:00;;;;;;;12.25;2.67;;;;;;;15.01;67.44;101386.25;5142552;27;20055;-61
2023/08/07 05:15:30;;;;;;;9.65;2.92;;;;;;;15.00;67.35;101388.13;5136180;27;20534;-60
2023/08/07 05:17:58;;;;;;;9.55;2.85;;;;;;;14.98;67.55;101382.97;5170725;27;20281;-60
2023/08/07 05:20:26;;;;;;;12.10;2.63;;;;;;;14.98;67.53;101392.97;5159605;27;20052;-60
2023/08/07 05:22:55;;;;;;;14.63;3.47;;;;;;;14.98;67.65;101396.50;5133230;27;20063;-61
2023/08/07 05:25:23;;;;;;;8.25;2.95;;;;;;;14.97;67.38;101397.56;5168982;27;20110;-60
2023/08/07 05:27:51;;;;;;;11.30;2.67;;;;;;;14.96;67.51;101397.78;5138824;27;20051;-60
2023/08/07 05:30:19;;;;;;;9.48;2.53;;;;;;;14.95;67.45;101401.56;5130521;27;20047;-60
2023/08/07 05:32:47;;;;;;;5.35;2.28;;;;;;;14.94;67.69;101411.56;5131306;27;20047;-60
2023/08/07 05:35:15;;;;;;;6.85;2.13;;;;;;;14.94;67.10;101411.56;5149115;27;20043;-60
2023/08/07 05:37:43;;;;;;;10.40;2.60;;;;;;;14.93;67.03;101418.03;5136675;27;20047;-60
2023/08/07 05:40:12;;;;;;;9.85;2.88;;;;;;;14.92;67.20;101410.97;5128341;27;20672;-60
2023/08/07 05:42:41;;;;;;;10.70;3.15;;;;;;;14.92;67.60;101419.09;5144164;27;20050;-60
2023/08/07 05:45:11;;;;;;;7.40;2.28;;;;;;;14.92;67.21;101415.56;5170012;27;20121;-60
2023/08/07 05:47:38;;;;;;;5.30;2.20;;;;;;;14.93;67.28;101417.22;5153935;27;20043;-60
2023/08/07 05:50:07;;;;;;;8.63;2.45;;;;;;;14.92;67.18;101421.78;5149380;27;20064;-60
2023/08/07 05:52:35;;;;;;;5.35;1.92;;;;;;;14.95;67.12;101428.63;5169317;27;20063;-59
2023/08/07 05:55:04;;;;;;;8.65;2.50;;;;;;;14.95;67.41;101429.44;5148646;27;20489;-62
2023/08/07 05:57:35;;;;;;;8.88;3.05;;;;;;;14.96;67.34;101425.69;5148503;27;20075;-61
2023/08/07 06:00:04;;;;;;;10.32;2.25;;;;;;;14.95;67.29;101436.75;5135099;27;20458;-61
2023/08/07 06:02:32;;;;;;;8.43;3.40;;;;;;;14.97;67.01;101426.50;5128226;28;20058;-61
2023/08/07 06:05:00;;;;;;;6.93;2.42;;;;;;;14.96;67.18;101436.50;5128051;27;20127;-61
2023/08/07 06:07:28;;;;;;;7.93;2.40;;;;;;;14.96;67.06;101433.78;5128400;28;20047;-61
2023/08/07 06:09:55;;;;;;;6.68;2.50;;;;;;;14.94;67.06;101427.78;5147020;27;20069;-61
2023/08/07 06:12:23;;;;;;;7.10;2.78;;;;;;;14.94;67.17;101443.22;5156979;27;20050;-61
2023/08/07 06:14:52;;;;;;;8.55;2.45;;;;;;;14.91;67.35;101436.38;5151092;27;20093;-61
2023/08/07 06:17:20;;;;;;;10.63;2.90;;;;;;;14.92;67.04;101429.09;5127839;28;20055;-61
2023/08/07 06:19:48;;;;;;;5.43;1.95;;;;;;;14.94;67.17;101441.31;5127872;28;20151;-61
2023/08/07 06:22:16;;;;;;;8.70;2.50;;;;;;;14.96;67.19;101441.09;5127768;28;20112;-61
2023/08/07 06:24:43;;;;;;;11.00;3.03;;;;;;;14.96;66.98;101436.50;5162355;27;20064;-61
2023/08/07 06:27:11;;;;;;;9.82;2.30;;;;;;;14.96;67.20;101447.34;5158989;27;20076;-61
2023/08/07 06:29:39;;;;;;;10.15;2.70;;;;;;;14.97;67.14;101451.69;5138061;27;20047;-61
2023/08/07 06:32:10;;;;;;;5.95;2.35;;;;;;;14.96;67.15;101446.50;5127265;28;20044;-61
2023/08/07 06:34:38;;;;;;;7.70;2.83;;;;;;;14.96;67.21;101458.16;5145948;27;20043;-61
2023/08/07 06:37:05;;;;;;;9.15;2.75;;;;;;;14.93;66.81;101455.91;5144229;27;20047;-61
2023/08/07 06:39:33;;;;;;;7.70;2.05;;;;;;;14.94;66.95;101460.28;5147208;27;20080;-61
2023/08/07 06:42:01;;;;;;;9.50;2.63;;;;;;;14.94;66.93;101462.97;5149996;27;20047;-61
2023/08/07 06:44:30;;;;;;;9.93;2.28;;;;;;;14.94;67.07;101460.28;5168859;27;20042;-61
2023/08/07 06:46:58;;;;;;;13.05;3.05;;;;;;;14.93;67.00;101457.81;5127585;27;20411;-61
2023/08/07 06:49:27;;;;;;;7.95;2.45;;;;;;;14.93;67.02;101472.16;5136436;27;20043;-61
2023/08/07 06:51:55;;;;;;;11.18;3.08;;;;;;;14.95;67.01;101474.63;5168268;27;20054;-61
2023/08/07 06:54:23;;;;;;;11.70;2.22;;;;;;;14.95;66.82;101480.03;5128152;27;20044;-61
2023/08/07 06:56:50;;;;;;;7.03;2.28;;;;;;;14.92;66.79;101466.97;5126711;28;20443;-61
2023/08/07 06:59:18;;;;;;;6.85;2.30;;;;;;;14.92;66.68;101473.22;5126961;27;20077;-61
2023/08/07 07:01:46;;;;;;;7.72;2.28;;;;;;;14.93;66.62;101480.28;5127022;28;20484;-61
2023/08/07 07:04:14;;;;;;;8.60;2.40;;;;;;;14.94;66.84;101473.81;5126829;28;20058;-61
2023/08/07 07:06:43;;;;;;;8.23;2.35;;;;;;;14.95;66.70;101480.03;5126976;28;20097;-61
2023/08/07 07:09:15;;;;;;;7.38;2.53;;;;;;;14.95;66.31;101483.56;5153486;27;20088;-61
2023/08/07 07:11:44;;;;;;;10.48;2.60;;;;;;;14.94;66.35;101479.22;5133691;27;20059;-61
2023/08/07 07:14:12;;;;;;;10.07;2.70;;;;;;;14.96;66.63;101487.09;5127070;28;20073;-61
2023/08/07 07:16:41;;;;;;;10.95;2.80;;;;;;;14.96;66.81;101481.69;5126898;28;20115;-61
2023/08/07 07:19:09;;;;;;;16.33;2.90;;;;;;;14.98;66.85;101487.69;5126893;28;20048;-61
2023/08/07 07:21:37;;;;;;;8.00;2.40;;;;;;;14.96;66.74;101482.53;5126583;28;20055;-61
2023/08/07 07:24:06;;;;;;;7.90;2.50;;;;;;;14.97;66.90;101486.88;5150970;27;20050;-61
2023/08/07 07:26:34;;;;;;;9.50;2.35;;;;;;;14.98;66.94;101498.53;5159067;27;20046;-61
2023/08/07 07:29:02;;;;;;;11.15;2.17;;;;;;;14.99;66.77;101494.75;5147210;27;20054;-61
2023/08/07 07:31:30;;;;;;;7.63;2.40;;;;;;;15.00;66.75;101495.59;5143595;27;20051;-61
2023/08/07 07:33:58;;;;;;;7.22;1.90;;;;;;;15.01;66.78;101502.66;5138865;27;20112;-61
2023/08/07 07:36:25;;;;;;;5.75;2.20;;;;;;;15.01;66.49;101508.06;5144991;27;20115;-61
2023/08/07 07:38:53;;;;;;;7.82;2.38;;;;;;;15.03;66.69;101511.34;5126394;28;20608;-61
2023/08/07 07:41:23;;;;;;;7.45;1.85;;;;;;;15.03;66.38;101514.06;5125844;28;20124;-61
2023/08/07 07:43:51;;;;;;;10.02;2.08;;;;;;;15.04;66.49;101510.28;5144288;27;20043;-61
2023/08/07 07:46:21;;;;;;;7.38;1.77;;;;;;;15.05;66.04;101520.88;5146678;27;20043;-61
2023/08/07 07:48:49;;;;;;;9.18;2.17;;;;;;;15.04;66.36;101524.66;5147001;27;20055;-64
2023/08/07 07:51:16;;;;;;;5.22;1.92;;;;;;;15.05;65.85;101529.00;5155226;27;20070;-61
2023/08/07 07:53:44;;;;;;;15.93;2.97;;;;;;;15.07;65.74;101521.47;5125836;28;20058;-61
2023/08/07 07:56:12;;;;;;;8.55;2.47;;;;;;;15.08;65.53;101531.25;5125348;28;20050;-61
2023/08/07 07:58:41;;;;;;;10.48;2.92;;;;;;;15.09;65.58;101530.19;5126183;28;20048;-61
2023/08/07 08:01:09;;;;;;;6.78;1.80;;;;;;;15.11;65.15;101524.53;5134101;28;20043;-61
2023/08/07 08:03:37;;;;;;;7.30;1.63;;;;;;;15.12;65.24;101534.31;5135329;28;20542;-61
2023/08/07 08:06:05;;;;;;;8.07;1.92;;;;;;;15.12;65.12;101534.31;5163721;27;20064;-61
2023/08/07 08:08:33;;;;;;;19.77;2.50;;;;;;;15.12;64.65;101534.31;5167327;27;20153;-61
2023/08/07 08:11:00;;;;;;;10.43;2.40;;;;;;;15.11;64.86;101538.06;5141922;27;20473;-61
2023/08/07 08:13:30;;;;;;;13.68;2.75;;;;;;;15.10;64.54;101548.09;5126007;28;20078;-61
2023/08/07 08:16:00;;;;;;;10.27;2.22;;;;;;;15.11;64.57;101547.03;5125668;28;20111;-61
2023/08/07 08:18:28;;;;;;;10.60;2.15;;;;;;;15.10;64.60;101545.38;5125799;28;20051;-61
2023/08/07 08:20:55;;;;;;;10.10;2.67;;;;;;;15.10;64.55;101539.97;5125683;28;20056;-61
2023/08/07 08:23:23;;;;;;;13.88;3.17;;;;;;;15.13;64.09;101547.63;5145458;27;20043;-61
2023/08/07 08:25:51;;;;;;;10.38;2.72;;;;;;;15.15;64.14;101548.19;5134324;27;20051;-61
2023/08/07 08:28:19;;;;;;;8.98;2.88;;;;;;;15.18;64.15;101545.03;5152489;27;20135;-61
2023/08/07 08:30:50;;;;;;;9.38;2.28;;;;;;;15.19;63.99;101543.13;5146552;28;20043;-61
2023/08/07 08:33:19;;;;;;;8.07;3.15;;;;;;;15.21;63.41;101549.16;5136216;28;20047;-61
2023/08/07 08:35:47;;;;;;;8.73;2.58;;;;;;;15.19;62.66;101548.56;5146044;28;20100;-61
2023/08/07 08:38:16;;;;;;;6.65;1.52;;;;;;;15.22;62.45;101543.50;5129128;28;20239;-61
2023/08/07 08:40:48;;;;;;;6.78;1.85;;;;;;;15.24;62.58;101546.78;5125389;28;20053;-61
2023/08/07 08:43:15;;;;;;;9.07;1.73;;;;;;;15.26;62.60;101555.50;5145419;27;20047;-61
2023/08/07 08:45:45;;;;;;;9.40;2.20;;;;;;;15.28;62.21;101564.22;5125648;28;20048;-61
2023/08/07 08:48:18;;;;;;;5.22;1.80;;;;;;;15.29;62.37;101559.63;5125693;28;20065;-61
2023/08/07 08:50:47;;;;;;;5.15;1.80;;;;;;;15.32;62.07;101563.75;5157596;27;20046;-61
2023/08/07 08:53:16;;;;;;;6.38;2.05;;;;;;;15.31;61.51;101562.91;5160565;27;20063;-61
2023/08/07 08:55:46;;;;;;;5.70;1.80;;;;;;;15.32;61.12;101561.03;5136527;28;20088;-61
2023/08/07 08:58:16;;;;;;;7.20;1.85;;;;;;;15.32;60.53;101570.00;5140162;28;20047;-60
2023/08/07 09:00:43;;;;;;;7.18;2.17;;;;;;;15.33;60.32;101565.41;5144496;27;20055;-61
2023/08/07 09:03:11;;;;;;;6.22;2.05;;;;;;;15.33;60.28;101568.94;5129179;28;20186;-61
2023/08/07 09:05:40;;;;;;;3.20;1.60;;;;;;;15.33;59.87;101565.41;5128916;28;20044;-61
2023/08/07 09:08:10;;;;;;;7.40;1.63;;;;;;;15.34;59.87;101576.00;5129376;28;20047;-61
2023/08/07 09:10:38;;;;;;;6.30;2.03;;;;;;;15.35;59.89;101574.09;5128778;27;20047;-60
2023/08/07 09:13:15;;;;;;;4.05;1.92;;;;;;;15.36;60.03;101573.06;5129145;28;20096;-61
2023/08/07 09:15:47;;;;;;;6.47;1.90;;;;;;;15.38;60.23;101585.28;5128912;28;20047;-60
2023/08/07 09:18:16;;;;;;;5.45;1.70;;;;;;;15.40;60.15;101583.19;5129261;28;20051;-61
2023/08/07 09:20:44;;;;;;;7.93;1.55;;;;;;;15.41;60.06;101579.41;5130910;27;20062;-61
2023/08/07 09:23:14;;;;;;;6.15;2.10;;;;;;;15.43;59.81;101580.00;5138136;27;20098;-61
2023/08/07 09:25:42;;;;;;;5.75;2.03;;;;;;;15.46;59.77;101576.00;5166575;27;20046;-61
2023/08/07 09:28:10;;;;;;;9.93;2.42;;;;;;;15.46;59.93;101582.22;5136254;27;20112;-61
2023/08/07 09:30:38;;;;;;;5.90;1.63;;;;;;;15.47;59.99;101589.31;5128631;27;20059;-61
2023/08/07 09:33:06;;;;;;;6.72;2.15;;;;;;;15.48;59.71;101590.94;5134280;27;20040;-61
2023/08/07 09:35:34;;;;;;;8.50;2.10;;;;;;;15.48;59.11;101590.94;5149150;27;20047;-61
2023/08/07 09:38:03;;;;;;;5.60;1.90;;;;;;;15.49;58.58;101584.47;5133689;27;20052;-61
2023/08/07 09:40:32;;;;;;;7.40;2.03;;;;;;;15.50;59.31;101590.72;5128292;27;20044;-61
2023/08/07 09:43:02;;;;;;;10.65;2.38;;;;;;;15.51;59.70;101586.94;5149904;27;20042;-61
2023/08/07 09:45:31;;;;;;;4.55;1.83;;;;;;;15.52;59.56;101602.13;5170035;27;20130;-60
2023/08/07 09:48:00;;;;;;;11.65;2.45;;;;;;;15.48;59.06;101582.81;5163853;27;20055;-61
2023/08/07 09:50:29;;;;;;;7.13;2.22;;;;;;;15.53;58.90;101596.47;5155310;27;20552;-60
2023/08/07 09:52:58;;;;;;;7.43;2.30;;;;;;;15.55;58.69;101588.94;5155223;27;20408;-60
2023/08/07 09:55:26;;;;;;;5.38;2.03;;;;;;;15.56;58.84;101587.06;5148660;27;20066;-62
2023/08/07 09:57:56;;;;;;;4.97;2.00;;;;;;;15.57;58.96;101600.41;5161714;27;20461;-61
2023/08/07 10:00:24;;;;;;;5.70;1.98;;;;;;;15.60;59.38;101605.31;5170033;27;20075;-61
2023/08/07 10:02:54;;;;;;;9.70;2.40;;;;;;;15.61;59.33;101604.25;5149237;27;20051;-61
2023/08/07 10:05:23;;;;;;;7.43;2.50;;;;;;;15.61;59.40;101611.56;5128213;28;20058;-61
2023/08/07 10:07:52;;;;;;;8.20;2.75;;;;;;;15.61;59.35;101611.56;5128071;28;20055;-61
2023/08/07 10:10:20;;;;;;;7.70;2.22;;;;;;;15.62;59.15;101613.22;5127575;28;20048;-61
2023/08/07 10:12:50;;;;;;;10.68;2.30;;;;;;;15.61;57.84;101609.69;5126703;28;20469;-61
2023/08/07 10:15:20;;;;;;;8.05;1.70;;;;;;;15.61;56.30;101604.25;5127973;28;20051;-61
2023/08/07 10:17:48;;;;;;;7.07;2.05;;;;;;;15.63;57.18;101621.09;5132906;27;20048;-61
2023/08/07 10:20:16;;;;;;;13.23;3.50;;;;;;;15.55;55.89;101596.25;5127742;28;20111;-61
2023/08/07 10:22:45;;;;;;;3.35;1.98;;;;;;;15.66;55.88;101622.50;5128905;27;20044;-61
2023/08/07 10:25:13;;;;;;;3.35;1.85;;;;;;;15.67;55.76;101620.63;5168819;27;20047;-61
2023/08/07 10:27:43;;;;;;;6.93;2.78;;;;;;;15.70;55.15;101615.56;5139019;27;20554;-61
2023/08/07 10:30:15;;;;;;;9.45;1.88;;;;;;;15.70;54.06;101612.84;5128105;28;20081;-61
2023/08/07 10:32:45;;;;;;;8.95;1.92;;;;;;;15.72;55.20;101620.75;5129561;27;20067;-61
2023/08/07 10:35:24;;;;;;;6.53;2.13;;;;;;;15.75;55.70;101631.09;5148282;27;20106;-61
2023/08/07 10:37:53;;;;;;;4.15;2.00;;;;;;;15.75;55.03;101623.81;5133572;27;20044;-61
2023/08/07 10:40:22;;;;;;;8.43;2.33;;;;;;;15.76;56.07;101630.88;5127655;28;20051;-61
2023/08/07 10:42:57;;;;;;;11.60;2.08;;;;;;;15.74;55.27;101634.88;5145546;27;20050;-61
2023/08/07 10:45:26;;;;;;;3.28;1.70;;;;;;;15.80;55.60;101644.78;5145157;27;20044;-61
2023/08/07 10:48:07;;;;;;;9.48;1.90;;;;;;;15.82;55.79;101642.66;5127281;28;20550;-61
2023/08/07 10:50:36;;;;;;;5.43;2.15;;;;;;;15.81;54.92;101639.13;5141784;27;20050;-61
2023/08/07 10:53:05;;;;;;;9.85;2.17;;;;;;;15.81;54.37;101632.88;5150575;27;20495;-61
2023/08/07 10:55:44;;;;;;;7.07;2.58;;;;;;;15.86;55.45;101641.13;5132150;27;20048;-61
2023/08/07 10:58:24;;;;;;;4.85;2.47;;;;;;;15.86;54.75;101639.22;5127068;28;20084;-61
2023/08/07 11:00:52;;;;;;;8.13;2.67;;;;;;;15.86;54.82;101652.78;5126863;28;20044;-60
2023/08/07 11:03:28;;;;;;;6.63;2.10;;;;;;;15.88;54.42;101639.81;5127017;28;20109;-60
2023/08/07 11:05:58;;;;;;;5.05;1.63;;;;;;;15.89;53.05;101637.94;5126512;28;20069;-61
2023/08/07 11:08:26;;;;;;;6.57;1.88;;;;;;;15.91;52.77;101644.75;5127001;28;20077;-61
2023/08/07 11:10:58;;;;;;;9.73;2.20;;;;;;;15.93;52.76;101642.63;5126668;28;20086;-61
2023/08/07 11:13:30;;;;;;;5.25;2.05;;;;;;;15.97;53.18;101631.31;5131731;27;20046;-60
2023/08/07 11:15:59;;;;;;;8.02;1.70;;;;;;;15.99;52.84;101637.31;5142354;27;20039;-61
2023/08/07 11:18:28;;;;;;;4.78;2.40;;;;;;;16.02;52.94;101639.56;5126687;28;20504;-61
2023/08/07 11:20:56;;;;;;;10.82;2.90;;;;;;;16.04;52.86;101634.72;5126572;28;20048;-61
2023/08/07 11:23:25;;;;;;;6.63;2.40;;;;;;;16.06;53.66;101638.03;5128383;27;20051;-60
2023/08/07 11:25:53;;;;;;;7.13;2.13;;;;;;;16.10;53.91;101640.03;5135341;27;20042;-60
2023/08/07 11:28:20;;;;;;;6.57;1.92;;;;;;;16.13;53.81;101631.41;5153353;27;20048;-60